createdAt,value
2017-10-08T00:00:07.169Z,3.40
2017-10-08T00:02:35.551Z,3.10
2017-10-08T00:05:03.897Z,2.27
2017-10-08T00:07:32.273Z,6.20
2017-10-08T00:10:00.586Z,2.90
2017-10-08T00:12:28.963Z,2.37
2017-10-08T00:14:57.400Z,2.20
2017-10-08T00:17:26.041Z,2.03
2017-10-08T00:19:54.952Z,1.90
2017-10-08T00:22:23.417Z,2.23
2017-10-08T00:24:51.916Z,2.23
2017-10-08T00:27:20.263Z,1.73
2017-10-08T00:29:48.704Z,2.27
2017-10-08T00:32:17.196Z,1.87
2017-10-08T00:34:45.606Z,1.60
2017-10-08T00:37:14.008Z,2.00
2017-10-08T00:39:42.421Z,1.80
2017-10-08T00:42:11.220Z,1.93
2017-10-08T00:44:39.641Z,1.60
2017-10-08T00:47:08.040Z,2.30
2017-10-08T00:49:36.374Z,2.27
2017-10-08T00:52:04.823Z,2.10
2017-10-08T00:54:33.163Z,3.30
2017-10-08T00:57:01.654Z,1.93
2017-10-08T00:59:30.013Z,2.80
2017-10-08T01:01:59.534Z,2.50
2017-10-08T01:04:28.037Z,2.87
2017-10-08T01:06:56.417Z,1.70
2017-10-08T01:09:25.215Z,2.90
2017-10-08T01:11:53.561Z,2.93
2017-10-08T01:14:22.189Z,3.47
2017-10-08T01:16:50.844Z,2.60
2017-10-08T01:19:19.240Z,2.60
2017-10-08T01:21:47.725Z,2.13
2017-10-08T01:24:16.117Z,2.47
2017-10-08T01:26:44.450Z,2.83
2017-10-08T01:29:12.826Z,2.57
2017-10-08T01:31:41.168Z,3.67
2017-10-08T01:34:09.514Z,2.97
2017-10-08T01:36:37.836Z,2.20
2017-10-08T01:39:06.190Z,1.50
2017-10-08T01:41:34.573Z,1.50
2017-10-08T01:44:02.897Z,1.70
2017-10-08T01:46:31.237Z,1.30
2017-10-08T01:48:59.593Z,1.37
2017-10-08T01:51:28.144Z,1.00
2017-10-08T01:53:56.541Z,1.30
2017-10-08T01:56:24.972Z,1.20
2017-10-08T01:58:53.370Z,1.00
2017-10-08T02:01:21.880Z,1.07
2017-10-08T02:03:50.301Z,1.07
2017-10-08T02:06:18.653Z,0.90
2017-10-08T02:08:47.170Z,1.40
2017-10-08T02:11:15.680Z,1.37
2017-10-08T02:13:44.027Z,1.80
2017-10-08T02:16:12.358Z,1.10
2017-10-08T02:18:40.794Z,1.30
2017-10-08T02:21:09.161Z,1.40
2017-10-08T02:23:37.512Z,1.47
2017-10-08T02:26:05.955Z,1.37
2017-10-08T02:28:34.264Z,1.50
2017-10-08T02:31:02.757Z,1.17
2017-10-08T02:33:31.113Z,1.67
2017-10-08T02:35:59.447Z,1.10
2017-10-08T02:38:27.749Z,1.57
2017-10-08T02:40:56.085Z,1.40
2017-10-08T02:43:24.398Z,1.80
2017-10-08T02:45:52.917Z,1.27
2017-10-08T02:48:21.270Z,1.20
2017-10-08T02:50:50.546Z,1.13
2017-10-08T02:53:19.052Z,1.07
2017-10-08T02:55:47.366Z,0.97
2017-10-08T02:58:15.693Z,1.00
2017-10-08T03:00:44.141Z,1.10
2017-10-08T03:03:12.478Z,0.93
2017-10-08T03:05:40.962Z,1.23
2017-10-08T03:08:09.444Z,0.93
2017-10-08T03:10:37.770Z,0.97
2017-10-08T03:13:06.164Z,0.90
2017-10-08T03:15:34.669Z,0.90
2017-10-08T03:18:03.213Z,0.60
2017-10-08T03:20:31.575Z,0.83
2017-10-08T03:22:59.972Z,1.20
2017-10-08T03:25:51.346Z,0.73
2017-10-08T03:28:19.722Z,1.00
2017-10-08T03:30:48.298Z,0.80
2017-10-08T03:33:16.629Z,0.63
2017-10-08T03:35:45.032Z,1.20
2017-10-08T03:38:13.449Z,0.70
2017-10-08T03:40:42.049Z,1.00
2017-10-08T03:43:10.405Z,1.00
2017-10-08T03:45:38.802Z,0.90
2017-10-08T03:48:07.124Z,0.70
2017-10-08T03:50:35.751Z,0.83
2017-10-08T03:53:04.169Z,0.70
2017-10-08T03:55:32.514Z,0.80
2017-10-08T03:58:00.841Z,0.90
2017-10-08T04:00:29.260Z,0.70
2017-10-08T04:02:57.668Z,0.60
2017-10-08T04:05:26.020Z,0.70
2017-10-08T04:07:54.403Z,0.70
2017-10-08T04:10:22.786Z,0.80
2017-10-08T04:12:51.284Z,0.67
2017-10-08T04:15:19.629Z,0.60
2017-10-08T04:17:48.025Z,0.93
2017-10-08T04:20:16.896Z,0.90
2017-10-08T04:22:45.256Z,0.70
2017-10-08T04:25:13.593Z,1.33
2017-10-08T04:27:42.100Z,1.20
2017-10-08T04:30:10.412Z,1.13
2017-10-08T04:32:38.851Z,0.80
2017-10-08T04:35:07.213Z,0.93
2017-10-08T04:37:35.617Z,0.90
2017-10-08T04:40:04.018Z,0.67
2017-10-08T04:42:32.311Z,0.70
2017-10-08T04:45:00.824Z,0.90
2017-10-08T04:47:29.147Z,1.00
2017-10-08T04:49:57.518Z,0.60
2017-10-08T04:52:25.874Z,0.80
2017-10-08T04:54:54.336Z,0.70
2017-10-08T04:57:22.779Z,0.70
2017-10-08T04:59:51.114Z,0.83
2017-10-08T05:02:19.442Z,1.27
2017-10-08T05:04:47.773Z,0.90
2017-10-08T05:07:16.086Z,1.00
2017-10-08T05:09:44.433Z,1.00
2017-10-08T05:12:12.808Z,1.50
2017-10-08T05:14:41.184Z,0.73
2017-10-08T05:17:09.591Z,1.00
2017-10-08T05:19:37.945Z,0.87
2017-10-08T05:22:06.313Z,0.87
2017-10-08T05:24:34.812Z,1.00
2017-10-08T05:27:03.170Z,1.17
2017-10-08T05:29:31.502Z,1.17
2017-10-08T05:31:59.957Z,1.20
2017-10-08T05:34:28.292Z,1.07
2017-10-08T05:36:56.655Z,0.90
2017-10-08T05:39:24.979Z,0.90
2017-10-08T05:41:53.404Z,0.97
2017-10-08T05:44:21.758Z,1.17
2017-10-08T05:46:50.110Z,1.63
2017-10-08T05:49:18.483Z,1.13
2017-10-08T05:51:46.787Z,1.50
2017-10-08T05:54:15.090Z,1.60
2017-10-08T05:56:43.419Z,1.10
2017-10-08T05:59:11.744Z,1.13
2017-10-08T06:01:40.297Z,1.27
2017-10-08T06:04:08.613Z,0.80
2017-10-08T06:06:37.017Z,1.13
2017-10-08T06:09:05.340Z,1.00
2017-10-08T06:11:33.636Z,1.13
2017-10-08T06:14:01.989Z,1.50
2017-10-08T06:16:30.293Z,1.30
2017-10-08T06:18:58.612Z,1.27
2017-10-08T06:21:26.908Z,1.57
2017-10-08T06:23:55.290Z,1.13
2017-10-08T06:26:23.601Z,1.20
2017-10-08T06:28:52.045Z,1.57
2017-10-08T06:31:20.516Z,1.17
2017-10-08T06:33:48.962Z,1.33
2017-10-08T06:36:17.346Z,1.50
2017-10-08T06:38:45.675Z,1.43
2017-10-08T06:41:14.144Z,1.50
2017-10-08T06:43:42.718Z,1.10
2017-10-08T06:46:11.188Z,1.30
2017-10-08T06:48:39.542Z,1.40
2017-10-08T06:51:07.870Z,1.10
2017-10-08T06:53:36.252Z,1.27
2017-10-08T06:56:04.686Z,1.00
2017-10-08T06:58:33.109Z,1.60
2017-10-08T07:01:01.607Z,1.30
2017-10-08T07:03:30.039Z,1.20
2017-10-08T07:05:58.589Z,1.17
2017-10-08T07:08:26.997Z,1.37
2017-10-08T07:10:55.389Z,1.50
2017-10-08T07:13:23.753Z,1.73
2017-10-08T07:15:52.111Z,1.67
2017-10-08T07:18:20.556Z,1.20
2017-10-08T07:20:48.912Z,1.53
2017-10-08T07:23:17.278Z,1.47
2017-10-08T07:25:46.594Z,1.43
2017-10-08T07:28:14.903Z,2.90
2017-10-08T07:30:43.204Z,1.50
2017-10-08T07:33:11.625Z,1.60
2017-10-08T07:35:41.181Z,1.30
2017-10-08T07:38:09.535Z,1.07
2017-10-08T07:40:37.913Z,0.90
2017-10-08T07:43:06.254Z,1.20
2017-10-08T07:45:34.579Z,1.53
2017-10-08T07:48:02.997Z,1.50
2017-10-08T07:50:31.324Z,1.47
2017-10-08T07:52:59.838Z,1.40
2017-10-08T07:55:28.159Z,1.20
2017-10-08T07:57:56.482Z,1.23
2017-10-08T08:00:24.851Z,0.93
2017-10-08T08:02:54.020Z,1.10
2017-10-08T08:05:22.402Z,1.50
2017-10-08T08:07:50.801Z,1.17
2017-10-08T08:10:19.220Z,0.97
2017-10-08T08:12:47.777Z,1.30
2017-10-08T08:15:16.177Z,1.10
2017-10-08T08:17:44.573Z,1.30
2017-10-08T08:20:12.894Z,1.20
2017-10-08T08:22:41.249Z,0.80
2017-10-08T08:25:09.565Z,1.00
2017-10-08T08:27:37.912Z,1.40
2017-10-08T08:30:06.390Z,1.00
2017-10-08T08:32:34.764Z,3.93
2017-10-08T08:35:03.166Z,1.00
2017-10-08T08:37:31.632Z,1.10
2017-10-08T08:40:00.221Z,1.63
2017-10-08T08:42:28.576Z,1.00
2017-10-08T08:44:56.928Z,1.30
2017-10-08T08:47:25.378Z,1.00
2017-10-08T08:49:53.809Z,1.30
2017-10-08T08:52:22.171Z,1.33
2017-10-08T08:54:50.586Z,1.10
2017-10-08T08:57:18.942Z,1.10
2017-10-08T08:59:47.517Z,0.80
2017-10-08T09:02:15.873Z,1.20
2017-10-08T09:04:44.993Z,1.47
2017-10-08T09:07:13.295Z,1.30
2017-10-08T09:09:41.649Z,1.30
2017-10-08T09:12:09.982Z,1.07
2017-10-08T09:14:38.314Z,1.10
2017-10-08T09:17:06.722Z,0.90
2017-10-08T09:19:35.134Z,1.10
2017-10-08T09:22:03.504Z,1.03
2017-10-08T09:24:31.973Z,1.50
2017-10-08T09:27:04.330Z,1.17
2017-10-08T09:29:32.781Z,1.20
2017-10-08T09:32:01.609Z,1.50
2017-10-08T09:34:29.944Z,1.00
2017-10-08T09:36:58.265Z,1.20
2017-10-08T09:39:26.781Z,1.10
2017-10-08T09:41:55.217Z,1.00
2017-10-08T09:44:23.539Z,1.40
2017-10-08T09:46:51.881Z,1.17
2017-10-08T09:49:20.691Z,1.33
2017-10-08T09:51:49.000Z,1.43
2017-10-08T09:54:17.377Z,1.30
2017-10-08T09:56:45.683Z,2.43
2017-10-08T09:59:13.991Z,1.03
2017-10-08T10:01:42.316Z,1.07
2017-10-08T10:04:10.630Z,1.20
2017-10-08T10:06:38.965Z,1.20
2017-10-08T10:09:07.268Z,1.33
2017-10-08T10:11:35.583Z,1.20
2017-10-08T10:14:03.891Z,1.37
2017-10-08T10:16:32.245Z,1.23
2017-10-08T10:19:00.558Z,1.30
2017-10-08T10:21:30.072Z,1.10
2017-10-08T10:23:58.478Z,1.20
2017-10-08T10:26:26.945Z,1.20
2017-10-08T10:28:55.308Z,1.03
2017-10-08T10:31:23.728Z,1.33
2017-10-08T10:33:52.143Z,1.00
2017-10-08T10:36:20.609Z,1.47
2017-10-08T10:38:49.004Z,1.10
2017-10-08T10:41:17.332Z,1.00
2017-10-08T10:43:46.291Z,1.30
2017-10-08T10:46:14.987Z,1.40
2017-10-08T10:48:43.640Z,1.27
2017-10-08T10:51:12.077Z,1.17
2017-10-08T10:53:40.527Z,1.20
2017-10-08T10:56:09.026Z,1.00
2017-10-08T10:58:37.493Z,0.90
2017-10-08T11:01:05.876Z,1.40
2017-10-08T11:03:34.263Z,0.97
2017-10-08T11:06:02.799Z,1.47
2017-10-08T11:08:31.172Z,1.30
2017-10-08T11:10:59.742Z,1.33
2017-10-08T11:13:28.146Z,1.33
2017-10-08T11:15:57.145Z,1.50
2017-10-08T11:18:25.717Z,2.00
2017-10-08T11:20:54.105Z,1.50
2017-10-08T11:23:22.751Z,1.53
2017-10-08T11:25:51.238Z,1.20
2017-10-08T11:28:20.310Z,1.10
2017-10-08T11:30:48.824Z,1.17
2017-10-08T11:33:17.211Z,1.33
2017-10-08T11:35:45.828Z,1.63
2017-10-08T11:38:14.599Z,1.60
2017-10-08T11:40:43.326Z,1.23
2017-10-08T11:43:11.893Z,1.40
2017-10-08T11:45:40.306Z,1.23
2017-10-08T11:48:08.702Z,0.97
2017-10-08T11:50:38.177Z,1.37
2017-10-08T11:53:14.560Z,1.27
2017-10-08T11:55:42.985Z,1.47
2017-10-08T11:58:11.510Z,1.60
2017-10-08T12:00:39.923Z,1.30
2017-10-08T12:03:08.369Z,1.20
2017-10-08T12:05:36.761Z,1.50
2017-10-08T12:08:05.176Z,1.10
2017-10-08T12:10:33.547Z,1.50
2017-10-08T12:13:01.873Z,1.63
2017-10-08T12:15:30.266Z,1.47
2017-10-08T12:17:58.614Z,1.80
2017-10-08T12:20:26.990Z,1.60
2017-10-08T12:22:55.431Z,1.50
2017-10-08T12:25:23.810Z,1.90
2017-10-08T12:27:52.208Z,1.23
2017-10-08T12:30:20.749Z,1.47
2017-10-08T12:32:49.093Z,1.60
2017-10-08T12:35:17.814Z,1.50
2017-10-08T12:37:46.276Z,1.87
2017-10-08T12:40:14.624Z,1.90
2017-10-08T12:42:43.032Z,2.30
2017-10-08T12:45:11.473Z,1.57
2017-10-08T12:47:39.980Z,1.40
2017-10-08T12:50:08.404Z,2.30
2017-10-08T12:52:36.816Z,1.20
2017-10-08T12:55:05.327Z,2.20
2017-10-08T12:57:33.843Z,1.90
2017-10-08T13:00:02.254Z,1.70
2017-10-08T13:02:31.725Z,1.40
2017-10-08T13:05:00.050Z,2.33
2017-10-08T13:07:28.404Z,3.67
2017-10-08T13:09:56.885Z,1.67
2017-10-08T13:12:25.249Z,2.20
2017-10-08T13:14:53.726Z,1.77
2017-10-08T13:17:22.116Z,2.03
2017-10-08T13:19:50.776Z,1.57
2017-10-08T13:22:19.251Z,1.50
2017-10-08T13:24:47.713Z,2.27
2017-10-08T13:27:16.189Z,2.20
2017-10-08T13:29:44.659Z,1.60
2017-10-08T13:32:13.548Z,2.10
2017-10-08T13:34:41.946Z,1.63
2017-10-08T13:37:11.426Z,1.60
2017-10-08T13:39:40.082Z,2.10
2017-10-08T13:42:09.171Z,1.83
2017-10-08T13:44:37.769Z,1.77
2017-10-08T13:47:06.299Z,2.13
2017-10-08T13:49:34.858Z,2.90
2017-10-08T13:52:03.276Z,1.87
2017-10-08T13:54:32.003Z,1.93
2017-10-08T13:57:00.586Z,1.73
2017-10-08T13:59:44.723Z,1.43
2017-10-08T14:02:13.201Z,1.40
2017-10-08T14:04:41.629Z,1.73
2017-10-08T14:07:10.938Z,1.23
2017-10-08T14:09:39.325Z,2.17
2017-10-08T14:12:07.797Z,1.77
2017-10-08T14:14:36.347Z,1.40
2017-10-08T14:17:04.956Z,1.60
2017-10-08T14:19:33.350Z,1.20
2017-10-08T14:22:01.861Z,1.20
2017-10-08T14:24:30.229Z,1.27
2017-10-08T14:26:58.921Z,1.43
2017-10-08T14:29:27.504Z,1.53
2017-10-08T14:31:55.933Z,1.57
2017-10-08T14:34:24.469Z,1.33
2017-10-08T14:36:53.014Z,1.57
2017-10-08T14:39:21.484Z,1.60
2017-10-08T14:41:50.013Z,1.20
2017-10-08T14:44:18.698Z,1.50
2017-10-08T14:46:47.173Z,1.47
2017-10-08T14:49:15.575Z,1.20
2017-10-08T14:51:43.898Z,1.53
2017-10-08T14:54:12.285Z,1.70
2017-10-08T14:56:40.672Z,1.50
2017-10-08T14:59:09.117Z,1.00
2017-10-08T15:01:37.617Z,2.00
2017-10-08T15:04:05.947Z,1.90
2017-10-08T15:06:34.357Z,1.60
2017-10-08T15:09:03.459Z,1.37
2017-10-08T15:11:32.087Z,1.30
2017-10-08T15:14:01.205Z,1.67
2017-10-08T15:16:29.617Z,1.63
2017-10-08T15:18:58.054Z,1.70
2017-10-08T15:21:26.501Z,1.57
2017-10-08T15:23:55.165Z,1.50
2017-10-08T15:26:24.438Z,1.43
2017-10-08T15:28:52.974Z,1.57
2017-10-08T15:31:21.534Z,1.90
2017-10-08T15:33:49.984Z,1.90
2017-10-08T15:36:18.494Z,2.83
2017-10-08T15:38:46.881Z,2.10
2017-10-08T15:41:15.354Z,2.87
2017-10-08T15:43:43.700Z,1.77
2017-10-08T15:46:12.092Z,1.73
2017-10-08T15:48:43.354Z,1.90
2017-10-08T15:51:11.923Z,1.70
2017-10-08T15:53:40.549Z,1.90
2017-10-08T15:56:09.037Z,1.67
2017-10-08T15:58:41.060Z,1.80
2017-10-08T16:01:09.595Z,1.87
2017-10-08T16:03:38.198Z,1.63
2017-10-08T16:06:08.356Z,2.17
2017-10-08T16:08:37.449Z,1.70
2017-10-08T16:11:05.824Z,2.03
2017-10-08T16:13:34.331Z,1.47
2017-10-08T16:16:02.968Z,2.23
2017-10-08T16:21:04.910Z,1.77
2017-10-08T16:23:33.240Z,1.77
2017-10-08T16:26:01.668Z,2.00
2017-10-08T16:28:30.286Z,2.30
2017-10-08T16:30:58.665Z,1.87
2017-10-08T16:33:27.229Z,2.37
2017-10-08T16:35:55.562Z,2.27
2017-10-08T16:38:24.262Z,2.03
2017-10-08T16:40:52.743Z,2.60
2017-10-08T16:43:21.329Z,1.37
2017-10-08T16:45:52.035Z,2.37
2017-10-08T16:48:20.693Z,2.50
2017-10-08T16:50:49.257Z,2.10
2017-10-08T16:53:17.893Z,2.90
2017-10-08T16:55:47.246Z,2.30
2017-10-08T16:58:16.358Z,3.13
2017-10-08T17:00:44.757Z,2.60
2017-10-08T17:03:13.355Z,2.70
2017-10-08T17:05:41.854Z,2.63
2017-10-08T17:08:10.325Z,3.10
2017-10-08T17:10:38.702Z,3.40
2017-10-08T17:13:07.458Z,2.67
2017-10-08T17:15:36.015Z,3.27
2017-10-08T17:18:04.496Z,2.37
2017-10-08T17:20:32.898Z,2.53
2017-10-08T17:23:01.337Z,2.13
2017-10-08T17:25:29.763Z,3.57
2017-10-08T17:27:58.120Z,2.63
2017-10-08T17:30:26.581Z,2.97
2017-10-08T17:32:55.079Z,3.67
2017-10-08T17:35:23.963Z,3.20
2017-10-08T17:37:52.494Z,2.03
2017-10-08T17:40:20.995Z,2.13
2017-10-08T17:42:49.565Z,2.63
2017-10-08T17:45:18.204Z,2.93
2017-10-08T17:47:46.595Z,3.20
2017-10-08T17:50:15.932Z,2.70
2017-10-08T17:52:44.448Z,3.30
2017-10-08T17:55:13.102Z,3.10
2017-10-08T17:57:41.800Z,3.87
2017-10-08T18:00:10.234Z,3.70
2017-10-08T18:02:38.994Z,2.60
2017-10-08T18:05:07.416Z,3.10
2017-10-08T18:07:35.914Z,3.30
2017-10-08T18:10:04.499Z,3.13
2017-10-08T18:12:32.992Z,2.83
2017-10-08T18:15:01.550Z,3.63
2017-10-08T18:17:29.904Z,3.07
2017-10-08T18:19:58.316Z,2.70
2017-10-08T18:22:27.011Z,2.77
2017-10-08T18:24:55.680Z,2.63
2017-10-08T18:27:24.108Z,3.60
2017-10-08T18:29:52.649Z,2.97
2017-10-08T18:32:21.151Z,4.27
2017-10-08T18:34:49.796Z,2.80
2017-10-08T18:37:19.942Z,3.10
2017-10-08T18:39:48.485Z,2.97
2017-10-08T18:42:16.886Z,2.57
2017-10-08T18:44:45.483Z,3.47
2017-10-08T18:47:14.370Z,3.97
2017-10-08T18:49:42.805Z,4.40
2017-10-08T18:52:11.220Z,5.47
2017-10-08T18:54:39.834Z,4.37
2017-10-08T18:57:09.236Z,3.90
2017-10-08T18:59:37.709Z,3.60
2017-10-08T19:02:07.232Z,3.50
2017-10-08T19:04:36.121Z,4.50
2017-10-08T19:07:04.538Z,3.20
2017-10-08T19:09:33.278Z,3.50
2017-10-08T19:12:01.715Z,3.50
2017-10-08T19:14:30.323Z,2.87
2017-10-08T19:16:58.982Z,3.40
2017-10-08T19:19:27.651Z,3.33
2017-10-08T19:21:56.485Z,3.50
2017-10-08T19:24:24.901Z,3.33
2017-10-08T19:26:53.710Z,3.13
2017-10-08T19:29:22.305Z,2.80
2017-10-08T19:31:50.986Z,3.73
2017-10-08T19:34:19.530Z,2.70
2017-10-08T19:36:51.547Z,2.30
2017-10-08T19:39:20.685Z,2.70
2017-10-08T19:41:53.019Z,2.97
2017-10-08T19:44:21.550Z,2.60
2017-10-08T19:49:22.916Z,3.47
2017-10-08T19:51:52.510Z,3.63
2017-10-08T19:54:21.113Z,3.20
2017-10-08T19:56:50.351Z,3.27
2017-10-08T19:59:19.013Z,3.60
2017-10-08T20:01:47.857Z,3.30
2017-10-08T20:04:16.281Z,2.63
2017-10-08T20:06:48.136Z,3.70
2017-10-08T20:09:16.820Z,3.70
2017-10-08T20:11:49.173Z,3.47
2017-10-08T20:14:18.588Z,3.40
2017-10-08T20:16:47.370Z,9.30
2017-10-08T20:19:16.377Z,3.40
2017-10-08T20:21:45.773Z,3.20
2017-10-08T20:24:14.276Z,3.17
2017-10-08T20:29:53.983Z,3.40
2017-10-08T20:34:56.770Z,3.10
2017-10-08T20:40:01.887Z,3.90
2017-10-08T20:50:14.127Z,3.23
2017-10-08T20:52:42.894Z,2.90
2017-10-08T20:57:44.023Z,3.20
2017-10-08T21:00:12.563Z,3.03
2017-10-08T21:07:50.867Z,3.30
2017-10-08T21:10:21.425Z,3.80
2017-10-08T21:12:52.000Z,2.97
2017-10-08T21:15:20.990Z,3.60
2017-10-08T21:17:49.520Z,3.00
2017-10-08T21:20:21.634Z,3.60
2017-10-08T21:22:50.030Z,3.20
2017-10-08T21:30:29.454Z,3.13
2017-10-08T21:35:36.952Z,3.40
2017-10-08T21:42:14.113Z,2.93
2017-10-08T21:44:42.693Z,3.50
2017-10-08T21:47:11.421Z,3.20
2017-10-08T21:52:20.742Z,3.93
2017-10-08T21:54:49.273Z,3.27
2017-10-08T21:57:17.871Z,3.50
2017-10-08T22:04:56.386Z,3.50
2017-10-08T22:07:25.270Z,3.47
2017-10-08T22:15:44.376Z,3.70
2017-10-08T22:18:12.825Z,3.43
2017-10-08T22:20:41.283Z,4.07
2017-10-08T22:23:09.715Z,3.53
2017-10-08T22:28:10.624Z,3.50
2017-10-08T22:30:39.140Z,3.70
2017-10-08T22:33:07.847Z,3.03
2017-10-08T22:35:36.606Z,3.30
2017-10-08T22:38:05.706Z,3.70
2017-10-08T22:40:34.357Z,3.40
2017-10-08T22:43:02.843Z,3.80
2017-10-08T22:45:33.147Z,3.27
2017-10-08T22:48:01.730Z,3.70
2017-10-08T22:50:30.225Z,3.40
2017-10-08T22:52:59.824Z,4.57
2017-10-08T22:55:28.174Z,3.50
2017-10-08T22:57:56.731Z,3.80
2017-10-08T23:00:25.274Z,3.57
2017-10-08T23:02:53.730Z,3.70
2017-10-08T23:05:22.536Z,3.67
2017-10-08T23:07:51.712Z,3.27
2017-10-08T23:10:20.786Z,3.43
2017-10-08T23:12:49.182Z,3.57
2017-10-08T23:15:17.681Z,3.77
2017-10-08T23:17:46.329Z,3.60
2017-10-08T23:23:09.037Z,2.97
2017-10-08T23:25:37.523Z,3.20
2017-10-08T23:28:06.815Z,3.10
2017-10-08T23:30:35.338Z,3.77
2017-10-08T23:33:03.683Z,2.70
2017-10-08T23:35:32.235Z,2.70
2017-10-08T23:38:01.189Z,3.30
2017-10-08T23:40:29.722Z,2.70
2017-10-08T23:42:58.164Z,3.27
2017-10-08T23:45:26.611Z,3.00
2017-10-08T23:47:55.084Z,3.67
2017-10-08T23:50:23.541Z,3.17
2017-10-08T23:52:52.706Z,3.13
2017-10-08T23:55:21.930Z,2.93
2017-10-08T23:57:50.346Z,3.13
